sensor_id;sensor_type;location;lat;lon;timestamp;P1;durP1;ratioP1;P2;durP2;ratioP2
49578;SDS011;35483;50.828;3.228;2023-09-19T00:01:23;6.80;;;2.00;;
49578;SDS011;35483;50.828;3.228;2023-09-19T00:03:49;5.60;;;2.03;;
49578;SDS011;35483;50.828;3.228;2023-09-19T00:06:14;7.20;;;2.10;;
49578;SDS011;35483;50.828;3.228;2023-09-19T00:08:40;7.63;;;2.58;;
49578;SDS011;35483;50.828;3.228;2023-09-19T00:11:09;8.23;;;2.20;;
49578;SDS011;35483;50.828;3.228;2023-09-19T00:13:36;9.20;;;2.83;;
49578;SDS011;35483;50.828;3.228;2023-09-19T00:16:01;7.68;;;2.72;;
49578;SDS011;35483;50.828;3.228;2023-09-19T00:18:33;8.02;;;2.50;;
49578;SDS011;35483;50.828;3.228;2023-09-19T00:20:59;7.82;;;2.30;;
49578;SDS011;35483;50.828;3.228;2023-09-19T00:23:26;6.72;;;2.40;;
49578;SDS011;35483;50.828;3.228;2023-09-19T00:25:52;7.22;;;2.65;;
49578;SDS011;35483;50.828;3.228;2023-09-19T00:28:22;6.75;;;2.17;;
49578;SDS011;35483;50.828;3.228;2023-09-19T00:30:48;6.05;;;2.35;;
49578;SDS011;35483;50.828;3.228;2023-09-19T00:33:20;4.85;;;2.30;;
49578;SDS011;35483;50.828;3.228;2023-09-19T00:35:51;6.28;;;2.25;;
49578;SDS011;35483;50.828;3.228;2023-09-19T00:38:18;4.80;;;1.70;;
49578;SDS011;35483;50.828;3.228;2023-09-19T00:40:52;6.88;;;2.42;;
49578;SDS011;35483;50.828;3.228;2023-09-19T00:43:22;8.60;;;2.35;;
49578;SDS011;35483;50.828;3.228;2023-09-19T00:45:50;9.32;;;2.35;;
49578;SDS011;35483;50.828;3.228;2023-09-19T00:48:19;5.35;;;2.58;;
49578;SDS011;35483;50.828;3.228;2023-09-19T00:50:46;7.10;;;2.55;;
49578;SDS011;35483;50.828;3.228;2023-09-19T00:53:19;7.78;;;2.70;;
49578;SDS011;35483;50.828;3.228;2023-09-19T00:55:48;4.75;;;2.00;;
49578;SDS011;35483;50.828;3.228;2023-09-19T00:58:16;5.47;;;1.95;;
49578;SDS011;35483;50.828;3.228;2023-09-19T01:00:43;7.97;;;2.28;;
49578;SDS011;35483;50.828;3.228;2023-09-19T01:03:10;13.93;;;2.67;;
49578;SDS011;35483;50.828;3.228;2023-09-19T01:05:38;6.45;;;2.38;;
49578;SDS011;35483;50.828;3.228;2023-09-19T01:08:04;4.93;;;3.03;;
49578;SDS011;35483;50.828;3.228;2023-09-19T01:10:31;7.38;;;2.25;;
49578;SDS011;35483;50.828;3.228;2023-09-19T01:19:28;7.68;;;1.77;;
49578;SDS011;35483;50.828;3.228;2023-09-19T01:22:36;7.05;;;2.70;;
49578;SDS011;35483;50.828;3.228;2023-09-19T01:25:18;7.38;;;2.20;;
49578;SDS011;35483;50.828;3.228;2023-09-19T01:30:45;6.03;;;2.10;;
49578;SDS011;35483;50.828;3.228;2023-09-19T01:33:16;6.15;;;1.75;;
49578;SDS011;35483;50.828;3.228;2023-09-19T01:35:42;6.38;;;2.20;;
49578;SDS011;35483;50.828;3.228;2023-09-19T01:38:07;8.00;;;2.42;;
49578;SDS011;35483;50.828;3.228;2023-09-19T01:40:43;8.48;;;2.00;;
49578;SDS011;35483;50.828;3.228;2023-09-19T01:51:32;7.50;;;2.20;;
49578;SDS011;35483;50.828;3.228;2023-09-19T01:54:12;7.60;;;2.53;;
49578;SDS011;35483;50.828;3.228;2023-09-19T01:56:53;8.52;;;2.20;;
49578;SDS011;35483;50.828;3.228;2023-09-19T02:00:16;12.00;;;2.53;;
49578;SDS011;35483;50.828;3.228;2023-09-19T02:02:43;6.43;;;2.20;;
49578;SDS011;35483;50.828;3.228;2023-09-19T02:05:12;6.07;;;1.80;;
49578;SDS011;35483;50.828;3.228;2023-09-19T02:07:47;9.10;;;2.55;;
49578;SDS011;35483;50.828;3.228;2023-09-19T02:10:13;3.70;;;1.70;;
49578;SDS011;35483;50.828;3.228;2023-09-19T02:12:39;5.93;;;2.00;;
49578;SDS011;35483;50.828;3.228;2023-09-19T02:15:05;6.13;;;2.60;;
49578;SDS011;35483;50.828;3.228;2023-09-19T02:17:32;6.93;;;2.00;;
49578;SDS011;35483;50.828;3.228;2023-09-19T02:19:58;8.32;;;2.58;;
49578;SDS011;35483;50.828;3.228;2023-09-19T02:22:28;8.85;;;2.60;;
49578;SDS011;35483;50.828;3.228;2023-09-19T02:24:54;7.55;;;2.13;;
49578;SDS011;35483;50.828;3.228;2023-09-19T02:27:23;6.50;;;2.00;;
49578;SDS011;35483;50.828;3.228;2023-09-19T02:29:49;7.20;;;2.03;;
49578;SDS011;35483;50.828;3.228;2023-09-19T02:32:15;5.50;;;2.22;;
49578;SDS011;35483;50.828;3.228;2023-09-19T02:34:43;9.25;;;2.30;;
49578;SDS011;35483;50.828;3.228;2023-09-19T02:37:09;9.95;;;2.60;;
49578;SDS011;35483;50.828;3.228;2023-09-19T02:39:35;4.97;;;2.00;;
49578;SDS011;35483;50.828;3.228;2023-09-19T02:42:01;5.28;;;2.00;;
49578;SDS011;35483;50.828;3.228;2023-09-19T02:44:29;6.97;;;2.00;;
49578;SDS011;35483;50.828;3.228;2023-09-19T02:46:55;5.00;;;2.00;;
49578;SDS011;35483;50.828;3.228;2023-09-19T02:49:22;4.70;;;2.25;;
49578;SDS011;35483;50.828;3.228;2023-09-19T02:51:48;7.88;;;2.60;;
49578;SDS011;35483;50.828;3.228;2023-09-19T02:54:14;6.85;;;2.10;;
49578;SDS011;35483;50.828;3.228;2023-09-19T02:56:41;5.55;;;1.85;;
49578;SDS011;35483;50.828;3.228;2023-09-19T02:59:07;7.70;;;2.38;;
49578;SDS011;35483;50.828;3.228;2023-09-19T03:01:35;7.65;;;2.15;;
49578;SDS011;35483;50.828;3.228;2023-09-19T03:04:03;5.70;;;2.20;;
49578;SDS011;35483;50.828;3.228;2023-09-19T03:06:33;7.35;;;2.30;;
49578;SDS011;35483;50.828;3.228;2023-09-19T03:08:59;6.82;;;2.65;;
49578;SDS011;35483;50.828;3.228;2023-09-19T03:11:25;10.80;;;3.00;;
49578;SDS011;35483;50.828;3.228;2023-09-19T03:13:52;9.13;;;2.40;;
49578;SDS011;35483;50.828;3.228;2023-09-19T03:16:18;8.90;;;2.50;;
49578;SDS011;35483;50.828;3.228;2023-09-19T03:18:47;5.55;;;2.28;;
49578;SDS011;35483;50.828;3.228;2023-09-19T03:21:14;7.32;;;2.20;;
49578;SDS011;35483;50.828;3.228;2023-09-19T03:23:40;8.20;;;2.47;;
49578;SDS011;35483;50.828;3.228;2023-09-19T03:26:08;6.65;;;2.40;;
49578;SDS011;35483;50.828;3.228;2023-09-19T03:28:34;10.23;;;3.05;;
49578;SDS011;35483;50.828;3.228;2023-09-19T03:31:00;7.68;;;2.88;;
49578;SDS011;35483;50.828;3.228;2023-09-19T03:33:27;5.93;;;2.25;;
49578;SDS011;35483;50.828;3.228;2023-09-19T03:35:53;10.27;;;2.85;;
49578;SDS011;35483;50.828;3.228;2023-09-19T03:38:19;7.07;;;2.42;;
49578;SDS011;35483;50.828;3.228;2023-09-19T03:40:48;8.90;;;2.55;;
49578;SDS011;35483;50.828;3.228;2023-09-19T03:43:14;11.50;;;2.33;;
49578;SDS011;35483;50.828;3.228;2023-09-19T03:45:40;6.80;;;2.83;;
49578;SDS011;35483;50.828;3.228;2023-09-19T03:48:09;9.75;;;3.13;;
49578;SDS011;35483;50.828;3.228;2023-09-19T03:50:35;6.05;;;2.20;;
49578;SDS011;35483;50.828;3.228;2023-09-19T03:53:01;7.72;;;2.25;;
49578;SDS011;35483;50.828;3.228;2023-09-19T03:55:28;9.23;;;2.50;;
49578;SDS011;35483;50.828;3.228;2023-09-19T03:57:55;10.27;;;2.75;;
49578;SDS011;35483;50.828;3.228;2023-09-19T04:00:21;11.02;;;3.08;;
49578;SDS011;35483;50.828;3.228;2023-09-19T04:02:49;7.10;;;2.47;;
49578;SDS011;35483;50.828;3.228;2023-09-19T04:05:17;9.63;;;3.25;;
49578;SDS011;35483;50.828;3.228;2023-09-19T04:07:43;6.85;;;2.85;;
49578;SDS011;35483;50.828;3.228;2023-09-19T04:10:08;8.07;;;2.42;;
49578;SDS011;35483;50.828;3.228;2023-09-19T04:12:36;8.50;;;2.40;;
49578;SDS011;35483;50.828;3.228;2023-09-19T04:15:05;9.77;;;2.17;;
49578;SDS011;35483;50.828;3.228;2023-09-19T04:17:32;9.98;;;2.60;;
49578;SDS011;35483;50.828;3.228;2023-09-19T04:20:01;6.97;;;2.67;;
49578;SDS011;35483;50.828;3.228;2023-09-19T04:22:26;11.35;;;2.78;;
49578;SDS011;35483;50.828;3.228;2023-09-19T04:24:52;9.20;;;2.78;;
49578;SDS011;35483;50.828;3.228;2023-09-19T04:27:18;6.28;;;2.08;;
49578;SDS011;35483;50.828;3.228;2023-09-19T04:29:44;6.55;;;2.75;;
49578;SDS011;35483;50.828;3.228;2023-09-19T04:32:09;9.90;;;2.40;;
49578;SDS011;35483;50.828;3.228;2023-09-19T04:34:35;7.68;;;2.20;;
49578;SDS011;35483;50.828;3.228;2023-09-19T04:37:03;6.22;;;2.17;;
49578;SDS011;35483;50.828;3.228;2023-09-19T04:39:29;12.50;;;2.85;;
49578;SDS011;35483;50.828;3.228;2023-09-19T04:41:55;8.43;;;2.50;;
49578;SDS011;35483;50.828;3.228;2023-09-19T04:44:20;10.00;;;2.30;;
49578;SDS011;35483;50.828;3.228;2023-09-19T04:46:46;9.20;;;2.55;;
49578;SDS011;35483;50.828;3.228;2023-09-19T04:49:12;11.40;;;2.83;;
49578;SDS011;35483;50.828;3.228;2023-09-19T04:51:38;6.75;;;2.45;;
49578;SDS011;35483;50.828;3.228;2023-09-19T04:54:05;5.85;;;2.28;;
49578;SDS011;35483;50.828;3.228;2023-09-19T04:56:31;6.68;;;2.70;;
49578;SDS011;35483;50.828;3.228;2023-09-19T04:58:58;6.78;;;2.20;;
49578;SDS011;35483;50.828;3.228;2023-09-19T05:01:24;6.95;;;2.28;;
49578;SDS011;35483;50.828;3.228;2023-09-19T05:03:50;6.47;;;2.28;;
49578;SDS011;35483;50.828;3.228;2023-09-19T05:06:19;6.93;;;2.28;;
49578;SDS011;35483;50.828;3.228;2023-09-19T05:08:48;8.77;;;2.22;;
49578;SDS011;35483;50.828;3.228;2023-09-19T05:11:20;7.63;;;2.15;;
49578;SDS011;35483;50.828;3.228;2023-09-19T05:13:48;10.27;;;2.60;;
49578;SDS011;35483;50.828;3.228;2023-09-19T05:16:18;5.03;;;2.00;;
49578;SDS011;35483;50.828;3.228;2023-09-19T05:18:43;9.63;;;2.58;;
49578;SDS011;35483;50.828;3.228;2023-09-19T05:21:09;7.80;;;2.20;;
49578;SDS011;35483;50.828;3.228;2023-09-19T05:23:35;8.38;;;2.65;;
49578;SDS011;35483;50.828;3.228;2023-09-19T05:26:02;8.13;;;2.67;;
49578;SDS011;35483;50.828;3.228;2023-09-19T05:28:29;9.85;;;2.55;;
49578;SDS011;35483;50.828;3.228;2023-09-19T05:30:55;8.77;;;2.90;;
49578;SDS011;35483;50.828;3.228;2023-09-19T05:33:20;5.55;;;2.47;;
49578;SDS011;35483;50.828;3.228;2023-09-19T05:35:49;9.88;;;2.65;;
49578;SDS011;35483;50.828;3.228;2023-09-19T05:38:15;8.65;;;2.70;;
49578;SDS011;35483;50.828;3.228;2023-09-19T05:40:44;7.00;;;2.50;;
49578;SDS011;35483;50.828;3.228;2023-09-19T05:43:10;11.18;;;2.78;;
49578;SDS011;35483;50.828;3.228;2023-09-19T05:45:36;7.72;;;3.05;;
49578;SDS011;35483;50.828;3.228;2023-09-19T05:48:12;5.85;;;2.38;;
49578;SDS011;35483;50.828;3.228;2023-09-19T05:50:38;7.03;;;2.20;;
49578;SDS011;35483;50.828;3.228;2023-09-19T05:53:04;8.20;;;2.67;;
49578;SDS011;35483;50.828;3.228;2023-09-19T05:55:31;9.80;;;2.47;;
49578;SDS011;35483;50.828;3.228;2023-09-19T05:57:57;6.88;;;2.25;;
49578;SDS011;35483;50.828;3.228;2023-09-19T06:00:24;5.40;;;2.22;;
49578;SDS011;35483;50.828;3.228;2023-09-19T06:02:56;9.40;;;2.92;;
49578;SDS011;35483;50.828;3.228;2023-09-19T06:05:26;8.18;;;2.10;;
49578;SDS011;35483;50.828;3.228;2023-09-19T06:07:53;6.97;;;2.33;;
49578;SDS011;35483;50.828;3.228;2023-09-19T06:10:19;8.48;;;2.58;;
49578;SDS011;35483;50.828;3.228;2023-09-19T06:12:48;5.82;;;2.65;;
49578;SDS011;35483;50.828;3.228;2023-09-19T06:15:14;9.05;;;2.53;;
49578;SDS011;35483;50.828;3.228;2023-09-19T06:17:47;7.20;;;2.28;;
49578;SDS011;35483;50.828;3.228;2023-09-19T06:20:14;13.40;;;2.83;;
49578;SDS011;35483;50.828;3.228;2023-09-19T06:22:44;9.50;;;2.13;;
49578;SDS011;35483;50.828;3.228;2023-09-19T06:25:11;8.40;;;2.53;;
49578;SDS011;35483;50.828;3.228;2023-09-19T06:27:40;7.95;;;2.25;;
49578;SDS011;35483;50.828;3.228;2023-09-19T06:30:08;7.32;;;2.63;;
49578;SDS011;35483;50.828;3.228;2023-09-19T06:32:34;5.15;;;2.33;;
49578;SDS011;35483;50.828;3.228;2023-09-19T06:35:01;7.95;;;2.42;;
49578;SDS011;35483;50.828;3.228;2023-09-19T06:37:28;5.97;;;2.45;;
49578;SDS011;35483;50.828;3.228;2023-09-19T06:39:54;7.32;;;2.35;;
49578;SDS011;35483;50.828;3.228;2023-09-19T06:42:19;6.10;;;1.80;;
49578;SDS011;35483;50.828;3.228;2023-09-19T06:44:47;5.53;;;2.25;;
49578;SDS011;35483;50.828;3.228;2023-09-19T06:47:13;5.43;;;2.20;;
49578;SDS011;35483;50.828;3.228;2023-09-19T06:49:41;6.43;;;2.10;;
49578;SDS011;35483;50.828;3.228;2023-09-19T06:52:09;5.65;;;2.10;;
49578;SDS011;35483;50.828;3.228;2023-09-19T06:54:35;6.97;;;2.22;;
49578;SDS011;35483;50.828;3.228;2023-09-19T06:57:01;6.68;;;2.40;;
49578;SDS011;35483;50.828;3.228;2023-09-19T06:59:27;5.38;;;2.10;;
49578;SDS011;35483;50.828;3.228;2023-09-19T07:01:52;8.40;;;2.78;;
49578;SDS011;35483;50.828;3.228;2023-09-19T07:04:18;6.78;;;2.70;;
49578;SDS011;35483;50.828;3.228;2023-09-19T07:06:50;5.03;;;2.20;;
49578;SDS011;35483;50.828;3.228;2023-09-19T07:09:16;6.30;;;2.55;;
49578;SDS011;35483;50.828;3.228;2023-09-19T07:11:42;7.68;;;2.67;;
49578;SDS011;35483;50.828;3.228;2023-09-19T07:14:08;11.15;;;2.30;;
49578;SDS011;35483;50.828;3.228;2023-09-19T07:16:36;9.05;;;2.15;;
49578;SDS011;35483;50.828;3.228;2023-09-19T07:19:07;8.00;;;2.50;;
49578;SDS011;35483;50.828;3.228;2023-09-19T07:21:33;9.73;;;2.08;;
49578;SDS011;35483;50.828;3.228;2023-09-19T07:24:00;5.38;;;2.35;;
49578;SDS011;35483;50.828;3.228;2023-09-19T07:26:27;8.80;;;2.13;;
49578;SDS011;35483;50.828;3.228;2023-09-19T07:28:53;9.50;;;2.67;;
49578;SDS011;35483;50.828;3.228;2023-09-19T07:31:19;7.82;;;2.40;;
49578;SDS011;35483;50.828;3.228;2023-09-19T07:33:47;7.88;;;2.30;;
49578;SDS011;35483;50.828;3.228;2023-09-19T07:36:13;7.60;;;2.30;;
49578;SDS011;35483;50.828;3.228;2023-09-19T07:38:40;7.97;;;2.05;;
49578;SDS011;35483;50.828;3.228;2023-09-19T07:41:06;8.55;;;2.20;;
49578;SDS011;35483;50.828;3.228;2023-09-19T07:43:34;7.07;;;2.42;;
49578;SDS011;35483;50.828;3.228;2023-09-19T07:46:06;6.43;;;2.30;;
49578;SDS011;35483;50.828;3.228;2023-09-19T07:48:34;6.82;;;1.85;;
49578;SDS011;35483;50.828;3.228;2023-09-19T07:51:04;7.93;;;2.05;;
49578;SDS011;35483;50.828;3.228;2023-09-19T07:53:31;7.63;;;2.28;;
49578;SDS011;35483;50.828;3.228;2023-09-19T07:56:06;4.65;;;2.15;;
49578;SDS011;35483;50.828;3.228;2023-09-19T07:58:33;6.38;;;1.90;;
49578;SDS011;35483;50.828;3.228;2023-09-19T08:01:07;7.38;;;2.50;;
49578;SDS011;35483;50.828;3.228;2023-09-19T08:03:34;5.70;;;1.80;;
49578;SDS011;35483;50.828;3.228;2023-09-19T08:06:02;9.77;;;2.20;;
49578;SDS011;35483;50.828;3.228;2023-09-19T08:08:28;4.93;;;2.00;;
49578;SDS011;35483;50.828;3.228;2023-09-19T08:10:54;7.55;;;2.13;;
49578;SDS011;35483;50.828;3.228;2023-09-19T08:13:23;7.07;;;1.90;;
49578;SDS011;35483;50.828;3.228;2023-09-19T08:15:49;8.52;;;1.60;;
49578;SDS011;35483;50.828;3.228;2023-09-19T08:18:16;5.70;;;1.80;;
49578;SDS011;35483;50.828;3.228;2023-09-19T08:20:42;5.85;;;1.67;;
49578;SDS011;35483;50.828;3.228;2023-09-19T08:23:11;8.25;;;2.22;;
49578;SDS011;35483;50.828;3.228;2023-09-19T08:25:36;6.03;;;1.80;;
49578;SDS011;35483;50.828;3.228;2023-09-19T08:28:04;8.05;;;1.95;;
49578;SDS011;35483;50.828;3.228;2023-09-19T08:30:33;5.15;;;1.88;;
49578;SDS011;35483;50.828;3.228;2023-09-19T08:32:59;5.18;;;1.75;;
49578;SDS011;35483;50.828;3.228;2023-09-19T08:35:28;6.20;;;1.67;;
49578;SDS011;35483;50.828;3.228;2023-09-19T08:37:54;5.75;;;1.65;;
49578;SDS011;35483;50.828;3.228;2023-09-19T08:40:20;5.07;;;1.70;;
49578;SDS011;35483;50.828;3.228;2023-09-19T08:42:50;7.60;;;2.20;;
49578;SDS011;35483;50.828;3.228;2023-09-19T08:45:18;4.25;;;1.58;;
49578;SDS011;35483;50.828;3.228;2023-09-19T08:53:16;4.82;;;1.48;;
49578;SDS011;35483;50.828;3.228;2023-09-19T08:55:49;6.40;;;2.00;;
49578;SDS011;35483;50.828;3.228;2023-09-19T08:58:20;5.65;;;2.40;;
49578;SDS011;35483;50.828;3.228;2023-09-19T09:00:47;5.93;;;1.63;;
49578;SDS011;35483;50.828;3.228;2023-09-19T09:03:15;5.50;;;1.73;;
49578;SDS011;35483;50.828;3.228;2023-09-19T09:05:44;7.53;;;1.85;;
49578;SDS011;35483;50.828;3.228;2023-09-19T09:08:12;7.18;;;1.92;;
49578;SDS011;35483;50.828;3.228;2023-09-19T09:10:38;5.50;;;1.73;;
49578;SDS011;35483;50.828;3.228;2023-09-19T09:13:05;5.25;;;2.08;;
49578;SDS011;35483;50.828;3.228;2023-09-19T09:15:32;7.13;;;1.60;;
49578;SDS011;35483;50.828;3.228;2023-09-19T09:18:02;5.72;;;2.00;;
49578;SDS011;35483;50.828;3.228;2023-09-19T09:20:29;4.20;;;1.30;;
49578;SDS011;35483;50.828;3.228;2023-09-19T09:22:56;3.60;;;1.58;;
49578;SDS011;35483;50.828;3.228;2023-09-19T09:25:49;3.25;;;1.27;;
49578;SDS011;35483;50.828;3.228;2023-09-19T09:28:24;6.82;;;1.88;;
49578;SDS011;35483;50.828;3.228;2023-09-19T09:30:51;2.80;;;1.25;;
49578;SDS011;35483;50.828;3.228;2023-09-19T09:33:17;3.65;;;1.58;;
49578;SDS011;35483;50.828;3.228;2023-09-19T09:35:54;3.33;;;1.30;;
49578;SDS011;35483;50.828;3.228;2023-09-19T09:38:42;4.78;;;1.40;;
49578;SDS011;35483;50.828;3.228;2023-09-19T09:41:10;5.80;;;1.73;;
49578;SDS011;35483;50.828;3.228;2023-09-19T09:43:40;4.03;;;1.50;;
49578;SDS011;35483;50.828;3.228;2023-09-19T09:46:17;6.43;;;1.55;;
49578;SDS011;35483;50.828;3.228;2023-09-19T09:48:58;7.45;;;2.05;;
49578;SDS011;35483;50.828;3.228;2023-09-19T09:54:25;3.20;;;1.63;;
49578;SDS011;35483;50.828;3.228;2023-09-19T09:57:07;4.22;;;1.85;;
49578;SDS011;35483;50.828;3.228;2023-09-19T09:59:55;4.65;;;1.13;;
49578;SDS011;35483;50.828;3.228;2023-09-19T10:02:41;4.95;;;1.25;;
49578;SDS011;35483;50.828;3.228;2023-09-19T10:05:17;4.47;;;1.30;;
49578;SDS011;35483;50.828;3.228;2023-09-19T10:07:53;3.75;;;0.90;;
49578;SDS011;35483;50.828;3.228;2023-09-19T10:10:34;3.60;;;1.48;;
49578;SDS011;35483;50.828;3.228;2023-09-19T10:13:09;3.85;;;1.00;;
49578;SDS011;35483;50.828;3.228;2023-09-19T10:15:49;1.63;;;0.90;;
49578;SDS011;35483;50.828;3.228;2023-09-19T10:18:28;5.63;;;1.38;;
49578;SDS011;35483;50.828;3.228;2023-09-19T10:20:56;1.45;;;0.95;;
49578;SDS011;35483;50.828;3.228;2023-09-19T10:23:22;2.80;;;0.90;;
49578;SDS011;35483;50.828;3.228;2023-09-19T10:25:48;4.85;;;1.48;;
49578;SDS011;35483;50.828;3.228;2023-09-19T10:28:15;2.53;;;0.90;;
49578;SDS011;35483;50.828;3.228;2023-09-19T10:30:47;3.45;;;1.00;;
49578;SDS011;35483;50.828;3.228;2023-09-19T10:33:15;1.70;;;1.00;;
49578;SDS011;35483;50.828;3.228;2023-09-19T10:35:43;3.92;;;1.27;;
49578;SDS011;35483;50.828;3.228;2023-09-19T10:38:12;1.05;;;0.80;;
49578;SDS011;35483;50.828;3.228;2023-09-19T10:40:39;3.65;;;0.90;;
49578;SDS011;35483;50.828;3.228;2023-09-19T10:43:13;2.15;;;0.90;;
49578;SDS011;35483;50.828;3.228;2023-09-19T10:45:45;2.80;;;1.45;;
49578;SDS011;35483;50.828;3.228;2023-09-19T10:48:13;3.45;;;1.00;;
49578;SDS011;35483;50.828;3.228;2023-09-19T10:50:43;1.35;;;0.98;;
49578;SDS011;35483;50.828;3.228;2023-09-19T10:53:14;3.70;;;0.90;;
49578;SDS011;35483;50.828;3.228;2023-09-19T10:55:42;2.65;;;1.15;;
49578;SDS011;35483;50.828;3.228;2023-09-19T10:58:29;5.60;;;1.33;;
49578;SDS011;35483;50.828;3.228;2023-09-19T11:01:02;5.03;;;1.00;;
49578;SDS011;35483;50.828;3.228;2023-09-19T11:03:33;3.78;;;1.20;;
49578;SDS011;35483;50.828;3.228;2023-09-19T11:06:02;6.80;;;1.30;;
49578;SDS011;35483;50.828;3.228;2023-09-19T11:30:34;1.50;;;1.20;;
49578;SDS011;35483;50.828;3.228;2023-09-19T11:33:21;3.10;;;1.10;;
49578;SDS011;35483;50.828;3.228;2023-09-19T11:43:46;2.53;;;1.10;;
49578;SDS011;35483;50.828;3.228;2023-09-19T11:46:51;3.55;;;1.13;;
49578;SDS011;35483;50.828;3.228;2023-09-19T11:49:29;2.80;;;1.00;;
49578;SDS011;35483;50.828;3.228;2023-09-19T11:52:02;4.78;;;1.30;;
49578;SDS011;35483;50.828;3.228;2023-09-19T11:54:33;2.53;;;1.30;;
49578;SDS011;35483;50.828;3.228;2023-09-19T11:57:05;2.95;;;1.20;;
49578;SDS011;35483;50.828;3.228;2023-09-19T11:59:33;1.83;;;0.95;;
49578;SDS011;35483;50.828;3.228;2023-09-19T12:02:05;7.30;;;1.65;;
49578;SDS011;35483;50.828;3.228;2023-09-19T12:07:04;2.80;;;1.40;;
49578;SDS011;35483;50.828;3.228;2023-09-19T12:09:39;3.17;;;1.20;;
49578;SDS011;35483;50.828;3.228;2023-09-19T12:12:09;2.88;;;1.33;;
49578;SDS011;35483;50.828;3.228;2023-09-19T12:14:55;3.17;;;1.40;;
49578;SDS011;35483;50.828;3.228;2023-09-19T12:17:38;2.03;;;1.17;;
49578;SDS011;35483;50.828;3.228;2023-09-19T12:20:06;3.72;;;1.50;;
49578;SDS011;35483;50.828;3.228;2023-09-19T12:22:39;2.60;;;1.05;;
49578;SDS011;35483;50.828;3.228;2023-09-19T12:25:05;2.28;;;1.33;;
49578;SDS011;35483;50.828;3.228;2023-09-19T12:27:41;2.40;;;1.23;;
49578;SDS011;35483;50.828;3.228;2023-09-19T12:30:12;2.70;;;1.10;;
49578;SDS011;35483;50.828;3.228;2023-09-19T12:32:46;3.30;;;1.10;;
49578;SDS011;35483;50.828;3.228;2023-09-19T12:35:28;3.65;;;0.98;;
49578;SDS011;35483;50.828;3.228;2023-09-19T12:37:55;3.30;;;1.30;;
49578;SDS011;35483;50.828;3.228;2023-09-19T12:40:22;4.38;;;1.58;;
49578;SDS011;35483;50.828;3.228;2023-09-19T12:42:52;3.03;;;1.20;;
49578;SDS011;35483;50.828;3.228;2023-09-19T12:45:23;3.17;;;1.20;;
49578;SDS011;35483;50.828;3.228;2023-09-19T12:51:04;2.28;;;1.20;;
49578;SDS011;35483;50.828;3.228;2023-09-19T12:53:37;3.90;;;1.58;;
49578;SDS011;35483;50.828;3.228;2023-09-19T12:56:14;3.78;;;2.08;;
49578;SDS011;35483;50.828;3.228;2023-09-19T12:58:51;2.47;;;1.35;;
49578;SDS011;35483;50.828;3.228;2023-09-19T13:01:19;2.75;;;1.50;;
49578;SDS011;35483;50.828;3.228;2023-09-19T13:03:45;2.65;;;1.30;;
49578;SDS011;35483;50.828;3.228;2023-09-19T13:06:11;3.10;;;1.20;;
49578;SDS011;35483;50.828;3.228;2023-09-19T13:08:38;2.25;;;1.17;;
49578;SDS011;35483;50.828;3.228;2023-09-19T13:13:36;3.25;;;1.45;;
49578;SDS011;35483;50.828;3.228;2023-09-19T13:16:03;3.65;;;1.45;;
49578;SDS011;35483;50.828;3.228;2023-09-19T13:18:50;5.25;;;1.60;;
49578;SDS011;35483;50.828;3.228;2023-09-19T13:21:55;5.53;;;1.52;;
49578;SDS011;35483;50.828;3.228;2023-09-19T13:24:23;3.50;;;1.42;;
49578;SDS011;35483;50.828;3.228;2023-09-19T13:26:55;3.88;;;2.10;;
49578;SDS011;35483;50.828;3.228;2023-09-19T13:29:22;2.95;;;1.42;;
49578;SDS011;35483;50.828;3.228;2023-09-19T13:31:49;2.53;;;1.33;;
49578;SDS011;35483;50.828;3.228;2023-09-19T13:34:18;2.33;;;1.30;;
49578;SDS011;35483;50.828;3.228;2023-09-19T13:36:45;4.60;;;1.30;;
49578;SDS011;35483;50.828;3.228;2023-09-19T13:39:15;3.78;;;1.33;;
49578;SDS011;35483;50.828;3.228;2023-09-19T13:41:44;5.38;;;2.10;;
49578;SDS011;35483;50.828;3.228;2023-09-19T13:44:13;3.45;;;1.40;;
49578;SDS011;35483;50.828;3.228;2023-09-19T13:46:39;5.15;;;1.58;;
49578;SDS011;35483;50.828;3.228;2023-09-19T13:49:05;7.47;;;1.75;;
49578;SDS011;35483;50.828;3.228;2023-09-19T13:51:31;3.10;;;1.25;;
49578;SDS011;35483;50.828;3.228;2023-09-19T13:53:57;2.72;;;1.45;;
49578;SDS011;35483;50.828;3.228;2023-09-19T13:56:24;7.43;;;1.73;;
49578;SDS011;35483;50.828;3.228;2023-09-19T13:58:58;4.25;;;1.75;;
49578;SDS011;35483;50.828;3.228;2023-09-19T14:01:23;3.17;;;1.80;;
49578;SDS011;35483;50.828;3.228;2023-09-19T14:03:51;2.88;;;1.65;;
49578;SDS011;35483;50.828;3.228;2023-09-19T14:06:19;2.60;;;1.63;;
49578;SDS011;35483;50.828;3.228;2023-09-19T14:08:45;4.07;;;1.70;;
49578;SDS011;35483;50.828;3.228;2023-09-19T14:11:13;6.15;;;1.83;;
49578;SDS011;35483;50.828;3.228;2023-09-19T14:13:42;5.55;;;1.80;;
49578;SDS011;35483;50.828;3.228;2023-09-19T14:16:13;3.55;;;1.70;;
49578;SDS011;35483;50.828;3.228;2023-09-19T14:18:39;5.47;;;1.83;;
49578;SDS011;35483;50.828;3.228;2023-09-19T14:21:05;3.47;;;1.85;;
49578;SDS011;35483;50.828;3.228;2023-09-19T14:23:37;4.45;;;1.75;;
49578;SDS011;35483;50.828;3.228;2023-09-19T14:26:03;2.78;;;1.50;;
49578;SDS011;35483;50.828;3.228;2023-09-19T14:28:33;4.78;;;2.05;;
49578;SDS011;35483;50.828;3.228;2023-09-19T14:31:08;4.82;;;2.45;;
49578;SDS011;35483;50.828;3.228;2023-09-19T14:33:35;5.13;;;2.05;;
49578;SDS011;35483;50.828;3.228;2023-09-19T14:36:02;4.28;;;1.70;;
49578;SDS011;35483;50.828;3.228;2023-09-19T14:38:33;3.45;;;1.80;;
49578;SDS011;35483;50.828;3.228;2023-09-19T14:41:00;5.28;;;1.67;;
49578;SDS011;35483;50.828;3.228;2023-09-19T14:43:26;5.55;;;1.58;;
49578;SDS011;35483;50.828;3.228;2023-09-19T14:45:54;5.00;;;1.65;;
49578;SDS011;35483;50.828;3.228;2023-09-19T14:48:19;5.10;;;1.83;;
49578;SDS011;35483;50.828;3.228;2023-09-19T14:50:48;7.20;;;1.95;;
49578;SDS011;35483;50.828;3.228;2023-09-19T14:53:15;4.93;;;1.90;;
49578;SDS011;35483;50.828;3.228;2023-09-19T14:55:41;4.43;;;2.38;;
49578;SDS011;35483;50.828;3.228;2023-09-19T14:58:09;4.80;;;1.80;;
49578;SDS011;35483;50.828;3.228;2023-09-19T15:00:37;4.53;;;2.00;;
49578;SDS011;35483;50.828;3.228;2023-09-19T15:03:03;4.35;;;1.58;;
49578;SDS011;35483;50.828;3.228;2023-09-19T15:05:29;7.53;;;2.20;;
49578;SDS011;35483;50.828;3.228;2023-09-19T15:07:55;4.85;;;1.90;;
49578;SDS011;35483;50.828;3.228;2023-09-19T15:10:22;4.47;;;1.88;;
49578;SDS011;35483;50.828;3.228;2023-09-19T15:12:48;2.97;;;1.90;;
49578;SDS011;35483;50.828;3.228;2023-09-19T15:15:14;4.90;;;2.13;;
49578;SDS011;35483;50.828;3.228;2023-09-19T15:17:39;4.38;;;2.03;;
49578;SDS011;35483;50.828;3.228;2023-09-19T15:20:06;5.40;;;1.92;;
49578;SDS011;35483;50.828;3.228;2023-09-19T15:22:33;3.88;;;1.90;;
49578;SDS011;35483;50.828;3.228;2023-09-19T15:25:00;5.35;;;2.25;;
49578;SDS011;35483;50.828;3.228;2023-09-19T15:27:27;7.53;;;2.03;;
49578;SDS011;35483;50.828;3.228;2023-09-19T15:29:56;4.00;;;1.73;;
49578;SDS011;35483;50.828;3.228;2023-09-19T15:32:23;4.20;;;1.63;;
49578;SDS011;35483;50.828;3.228;2023-09-19T15:34:49;4.05;;;1.70;;
49578;SDS011;35483;50.828;3.228;2023-09-19T15:37:15;4.68;;;2.38;;
49578;SDS011;35483;50.828;3.228;2023-09-19T15:39:41;4.93;;;2.13;;
49578;SDS011;35483;50.828;3.228;2023-09-19T15:42:07;6.53;;;2.50;;
49578;SDS011;35483;50.828;3.228;2023-09-19T15:44:33;7.35;;;2.47;;
49578;SDS011;35483;50.828;3.228;2023-09-19T15:46:59;3.60;;;1.80;;
49578;SDS011;35483;50.828;3.228;2023-09-19T15:49:24;5.18;;;2.40;;
49578;SDS011;35483;50.828;3.228;2023-09-19T15:51:50;5.03;;;1.92;;
49578;SDS011;35483;50.828;3.228;2023-09-19T15:54:16;4.95;;;2.05;;
49578;SDS011;35483;50.828;3.228;2023-09-19T15:56:43;3.92;;;2.33;;
49578;SDS011;35483;50.828;3.228;2023-09-19T15:59:10;4.95;;;2.25;;
49578;SDS011;35483;50.828;3.228;2023-09-19T16:01:43;5.22;;;2.75;;
49578;SDS011;35483;50.828;3.228;2023-09-19T16:04:10;6.05;;;2.50;;